sensor_id;sensor_type;location;lat;lon;timestamp;P1;durP1;ratioP1;P2;durP2;ratioP2
2211;SDS011;48849;48.758;9.158;2023-04-24T00:00:42;1.40;;;1.00;;
2211;SDS011;48849;48.758;9.158;2023-04-24T00:03:11;1.60;;;1.50;;
2211;SDS011;48849;48.758;9.158;2023-04-24T00:05:39;2.25;;;1.55;;
2211;SDS011;48849;48.758;9.158;2023-04-24T00:10:36;1.23;;;1.13;;
2211;SDS011;48849;48.758;9.158;2023-04-24T00:13:03;1.10;;;1.00;;
2211;SDS011;48849;48.758;9.158;2023-04-24T00:15:30;1.20;;;1.10;;
2211;SDS011;48849;48.758;9.158;2023-04-24T00:17:57;1.55;;;1.17;;
2211;SDS011;48849;48.758;9.158;2023-04-24T00:20:27;1.35;;;1.15;;
2211;SDS011;48849;48.758;9.158;2023-04-24T00:22:57;2.45;;;1.58;;
2211;SDS011;48849;48.758;9.158;2023-04-24T00:25:24;2.72;;;1.17;;
2211;SDS011;48849;48.758;9.158;2023-04-24T00:27:51;2.05;;;1.45;;
2211;SDS011;48849;48.758;9.158;2023-04-24T00:30:18;2.83;;;1.50;;
2211;SDS011;48849;48.758;9.158;2023-04-24T00:32:45;1.80;;;1.40;;
2211;SDS011;48849;48.758;9.158;2023-04-24T00:35:12;1.60;;;1.20;;
2211;SDS011;48849;48.758;9.158;2023-04-24T00:37:41;2.22;;;1.10;;
2211;SDS011;48849;48.758;9.158;2023-04-24T00:40:08;1.75;;;1.40;;
2211;SDS011;48849;48.758;9.158;2023-04-24T00:42:36;1.92;;;1.40;;
2211;SDS011;48849;48.758;9.158;2023-04-24T00:45:03;2.10;;;1.10;;
2211;SDS011;48849;48.758;9.158;2023-04-24T00:47:31;5.07;;;1.50;;
2211;SDS011;48849;48.758;9.158;2023-04-24T00:50:00;2.65;;;0.90;;
2211;SDS011;48849;48.758;9.158;2023-04-24T00:52:30;2.17;;;1.00;;
2211;SDS011;48849;48.758;9.158;2023-04-24T00:55:00;1.83;;;1.10;;
2211;SDS011;48849;48.758;9.158;2023-04-24T00:57:29;3.72;;;1.23;;
2211;SDS011;48849;48.758;9.158;2023-04-24T00:59:56;2.70;;;1.23;;
2211;SDS011;48849;48.758;9.158;2023-04-24T01:02:24;3.13;;;1.02;;
2211;SDS011;48849;48.758;9.158;2023-04-24T01:04:59;1.60;;;0.95;;
2211;SDS011;48849;48.758;9.158;2023-04-24T01:07:26;1.10;;;1.00;;
2211;SDS011;48849;48.758;9.158;2023-04-24T01:09:53;1.60;;;1.20;;
2211;SDS011;48849;48.758;9.158;2023-04-24T01:12:22;4.63;;;1.02;;
2211;SDS011;48849;48.758;9.158;2023-04-24T01:14:50;1.75;;;1.00;;
2211;SDS011;48849;48.758;9.158;2023-04-24T01:17:17;2.58;;;0.98;;
2211;SDS011;48849;48.758;9.158;2023-04-24T01:19:49;2.47;;;1.10;;
2211;SDS011;48849;48.758;9.158;2023-04-24T01:22:20;2.08;;;1.08;;
2211;SDS011;48849;48.758;9.158;2023-04-24T01:24:47;3.25;;;1.35;;
2211;SDS011;48849;48.758;9.158;2023-04-24T01:27:15;2.25;;;1.02;;
2211;SDS011;48849;48.758;9.158;2023-04-24T01:29:43;2.08;;;1.00;;
2211;SDS011;48849;48.758;9.158;2023-04-24T01:32:10;2.03;;;1.60;;
2211;SDS011;48849;48.758;9.158;2023-04-24T01:34:38;1.60;;;1.20;;
2211;SDS011;48849;48.758;9.158;2023-04-24T01:37:08;1.10;;;1.00;;
2211;SDS011;48849;48.758;9.158;2023-04-24T01:39:37;3.60;;;1.20;;
2211;SDS011;48849;48.758;9.158;2023-04-24T01:42:04;3.55;;;1.38;;
2211;SDS011;48849;48.758;9.158;2023-04-24T01:44:33;1.90;;;1.08;;
2211;SDS011;48849;48.758;9.158;2023-04-24T01:47:00;1.20;;;1.10;;
2211;SDS011;48849;48.758;9.158;2023-04-24T01:49:27;1.00;;;0.90;;
2211;SDS011;48849;48.758;9.158;2023-04-24T01:51:55;2.17;;;1.08;;
2211;SDS011;48849;48.758;9.158;2023-04-24T01:54:22;1.20;;;1.00;;
2211;SDS011;48849;48.758;9.158;2023-04-24T01:56:50;3.97;;;1.40;;
2211;SDS011;48849;48.758;9.158;2023-04-24T01:59:18;1.95;;;1.00;;
2211;SDS011;48849;48.758;9.158;2023-04-24T02:01:48;1.90;;;1.20;;
2211;SDS011;48849;48.758;9.158;2023-04-24T02:04:15;2.10;;;1.40;;
2211;SDS011;48849;48.758;9.158;2023-04-24T02:06:42;1.95;;;1.08;;
2211;SDS011;48849;48.758;9.158;2023-04-24T02:09:11;1.35;;;1.08;;
2211;SDS011;48849;48.758;9.158;2023-04-24T02:11:38;2.50;;;1.00;;
2211;SDS011;48849;48.758;9.158;2023-04-24T02:14:10;3.17;;;1.67;;
2211;SDS011;48849;48.758;9.158;2023-04-24T02:16:38;2.42;;;1.27;;
2211;SDS011;48849;48.758;9.158;2023-04-24T02:19:05;1.75;;;1.10;;
2211;SDS011;48849;48.758;9.158;2023-04-24T02:21:32;1.83;;;1.33;;
2211;SDS011;48849;48.758;9.158;2023-04-24T02:23:59;1.30;;;1.20;;
2211;SDS011;48849;48.758;9.158;2023-04-24T02:26:27;1.58;;;1.17;;
2211;SDS011;48849;48.758;9.158;2023-04-24T02:28:54;1.58;;;1.02;;
2211;SDS011;48849;48.758;9.158;2023-04-24T02:31:26;4.75;;;1.20;;
2211;SDS011;48849;48.758;9.158;2023-04-24T02:33:54;1.50;;;1.00;;
2211;SDS011;48849;48.758;9.158;2023-04-24T02:36:21;1.20;;;1.10;;
2211;SDS011;48849;48.758;9.158;2023-04-24T02:38:48;1.20;;;1.10;;
2211;SDS011;48849;48.758;9.158;2023-04-24T02:41:15;1.20;;;1.10;;
2211;SDS011;48849;48.758;9.158;2023-04-24T02:43:43;1.70;;;1.20;;
2211;SDS011;48849;48.758;9.158;2023-04-24T02:46:10;3.25;;;1.40;;
2211;SDS011;48849;48.758;9.158;2023-04-24T02:48:42;2.67;;;1.10;;
2211;SDS011;48849;48.758;9.158;2023-04-24T02:51:09;1.58;;;1.10;;
2211;SDS011;48849;48.758;9.158;2023-04-24T02:53:38;1.63;;;1.08;;
2211;SDS011;48849;48.758;9.158;2023-04-24T02:56:05;1.80;;;1.10;;
2211;SDS011;48849;48.758;9.158;2023-04-24T02:58:42;4.28;;;1.08;;
2211;SDS011;48849;48.758;9.158;2023-04-24T03:01:09;1.13;;;1.00;;
2211;SDS011;48849;48.758;9.158;2023-04-24T03:03:36;3.05;;;1.70;;
2211;SDS011;48849;48.758;9.158;2023-04-24T03:06:08;1.77;;;1.50;;
2211;SDS011;48849;48.758;9.158;2023-04-24T03:08:36;1.50;;;1.40;;
2211;SDS011;48849;48.758;9.158;2023-04-24T03:11:03;2.10;;;1.20;;
2211;SDS011;48849;48.758;9.158;2023-04-24T03:13:31;2.15;;;1.25;;
2211;SDS011;48849;48.758;9.158;2023-04-24T03:15:58;1.67;;;1.35;;
2211;SDS011;48849;48.758;9.158;2023-04-24T03:18:25;2.60;;;1.25;;
2211;SDS011;48849;48.758;9.158;2023-04-24T03:20:53;1.85;;;1.15;;
2211;SDS011;48849;48.758;9.158;2023-04-24T03:23:22;2.13;;;1.23;;
2211;SDS011;48849;48.758;9.158;2023-04-24T03:25:50;1.52;;;1.30;;
2211;SDS011;48849;48.758;9.158;2023-04-24T03:28:17;1.98;;;1.27;;
2211;SDS011;48849;48.758;9.158;2023-04-24T03:30:45;1.45;;;0.90;;
2211;SDS011;48849;48.758;9.158;2023-04-24T03:33:12;2.85;;;1.30;;
2211;SDS011;48849;48.758;9.158;2023-04-24T03:35:39;1.75;;;1.08;;
2211;SDS011;48849;48.758;9.158;2023-04-24T03:38:07;1.27;;;1.17;;
2211;SDS011;48849;48.758;9.158;2023-04-24T03:40:40;1.90;;;1.10;;
2211;SDS011;48849;48.758;9.158;2023-04-24T03:43:10;0.95;;;0.85;;
2211;SDS011;48849;48.758;9.158;2023-04-24T03:45:37;1.80;;;1.10;;
2211;SDS011;48849;48.758;9.158;2023-04-24T03:48:05;1.40;;;1.10;;
2211;SDS011;48849;48.758;9.158;2023-04-24T03:50:32;1.40;;;1.10;;
2211;SDS011;48849;48.758;9.158;2023-04-24T03:52:59;2.95;;;1.30;;
2211;SDS011;48849;48.758;9.158;2023-04-24T03:55:29;1.23;;;1.05;;
2211;SDS011;48849;48.758;9.158;2023-04-24T03:58:01;1.80;;;1.30;;
2211;SDS011;48849;48.758;9.158;2023-04-24T04:00:33;3.80;;;1.55;;
2211;SDS011;48849;48.758;9.158;2023-04-24T04:03:00;1.17;;;1.02;;
2211;SDS011;48849;48.758;9.158;2023-04-24T04:05:30;1.20;;;1.10;;
2211;SDS011;48849;48.758;9.158;2023-04-24T04:08:00;1.17;;;1.08;;
2211;SDS011;48849;48.758;9.158;2023-04-24T04:10:27;1.60;;;1.05;;
2211;SDS011;48849;48.758;9.158;2023-04-24T04:12:55;2.10;;;1.02;;
2211;SDS011;48849;48.758;9.158;2023-04-24T04:15:27;1.15;;;1.05;;
2211;SDS011;48849;48.758;9.158;2023-04-24T04:17:57;1.55;;;0.90;;
2211;SDS011;48849;48.758;9.158;2023-04-24T04:20:25;2.88;;;1.10;;
2211;SDS011;48849;48.758;9.158;2023-04-24T04:22:52;1.77;;;1.30;;
2211;SDS011;48849;48.758;9.158;2023-04-24T04:25:19;1.15;;;1.00;;
2211;SDS011;48849;48.758;9.158;2023-04-24T04:27:46;1.58;;;1.10;;
2211;SDS011;48849;48.758;9.158;2023-04-24T04:30:14;1.52;;;1.17;;
2211;SDS011;48849;48.758;9.158;2023-04-24T04:32:42;3.22;;;1.30;;
2211;SDS011;48849;48.758;9.158;2023-04-24T04:35:10;2.55;;;1.25;;
2211;SDS011;48849;48.758;9.158;2023-04-24T04:37:37;2.92;;;1.13;;
2211;SDS011;48849;48.758;9.158;2023-04-24T04:40:05;1.40;;;1.10;;
2211;SDS011;48849;48.758;9.158;2023-04-24T04:42:36;3.75;;;1.20;;
2211;SDS011;48849;48.758;9.158;2023-04-24T04:45:05;2.00;;;1.10;;
2211;SDS011;48849;48.758;9.158;2023-04-24T04:47:34;1.70;;;1.00;;
2211;SDS011;48849;48.758;9.158;2023-04-24T04:50:03;1.80;;;1.10;;
2211;SDS011;48849;48.758;9.158;2023-04-24T04:52:32;1.67;;;1.58;;
2211;SDS011;48849;48.758;9.158;2023-04-24T04:55:00;1.38;;;1.27;;
2211;SDS011;48849;48.758;9.158;2023-04-24T04:57:26;2.33;;;1.25;;
2211;SDS011;48849;48.758;9.158;2023-04-24T04:59:54;1.80;;;1.50;;
2211;SDS011;48849;48.758;9.158;2023-04-24T05:02:23;1.63;;;1.40;;
2211;SDS011;48849;48.758;9.158;2023-04-24T05:04:50;2.70;;;1.42;;
2211;SDS011;48849;48.758;9.158;2023-04-24T05:07:19;3.45;;;1.40;;
2211;SDS011;48849;48.758;9.158;2023-04-24T05:09:46;2.40;;;1.67;;
2211;SDS011;48849;48.758;9.158;2023-04-24T05:12:13;1.98;;;1.52;;
2211;SDS011;48849;48.758;9.158;2023-04-24T05:14:40;1.67;;;1.38;;
2211;SDS011;48849;48.758;9.158;2023-04-24T05:17:07;1.95;;;1.40;;
2211;SDS011;48849;48.758;9.158;2023-04-24T05:19:35;1.90;;;1.45;;
2211;SDS011;48849;48.758;9.158;2023-04-24T05:22:07;2.47;;;1.83;;
2211;SDS011;48849;48.758;9.158;2023-04-24T05:24:41;2.20;;;2.03;;
2211;SDS011;48849;48.758;9.158;2023-04-24T05:27:11;2.78;;;1.80;;
2211;SDS011;48849;48.758;9.158;2023-04-24T05:29:38;2.30;;;1.45;;
2211;SDS011;48849;48.758;9.158;2023-04-24T05:32:05;2.53;;;1.80;;
2211;SDS011;48849;48.758;9.158;2023-04-24T05:34:32;2.97;;;1.65;;
2211;SDS011;48849;48.758;9.158;2023-04-24T05:37:02;4.43;;;1.98;;
2211;SDS011;48849;48.758;9.158;2023-04-24T05:39:33;2.67;;;1.33;;
2211;SDS011;48849;48.758;9.158;2023-04-24T05:42:04;1.48;;;1.38;;
2211;SDS011;48849;48.758;9.158;2023-04-24T05:44:31;2.08;;;1.65;;
2211;SDS011;48849;48.758;9.158;2023-04-24T05:46:59;2.75;;;1.50;;
2211;SDS011;48849;48.758;9.158;2023-04-24T05:49:28;2.85;;;1.80;;
2211;SDS011;48849;48.758;9.158;2023-04-24T05:51:55;1.60;;;1.50;;
2211;SDS011;48849;48.758;9.158;2023-04-24T05:54:24;1.92;;;1.73;;
2211;SDS011;48849;48.758;9.158;2023-04-24T05:56:51;4.05;;;1.75;;
2211;SDS011;48849;48.758;9.158;2023-04-24T05:59:21;2.47;;;1.80;;
2211;SDS011;48849;48.758;9.158;2023-04-24T06:01:48;1.77;;;1.60;;
2211;SDS011;48849;48.758;9.158;2023-04-24T06:04:15;1.92;;;1.83;;
2211;SDS011;48849;48.758;9.158;2023-04-24T06:06:44;1.90;;;1.70;;
2211;SDS011;48849;48.758;9.158;2023-04-24T06:09:11;2.97;;;2.30;;
2211;SDS011;48849;48.758;9.158;2023-04-24T06:11:38;3.70;;;1.90;;
2211;SDS011;48849;48.758;9.158;2023-04-24T06:14:04;2.30;;;1.98;;
2211;SDS011;48849;48.758;9.158;2023-04-24T06:16:33;2.80;;;2.00;;
2211;SDS011;48849;48.758;9.158;2023-04-24T06:19:00;2.13;;;1.73;;
2211;SDS011;48849;48.758;9.158;2023-04-24T06:21:27;2.58;;;2.33;;
2211;SDS011;48849;48.758;9.158;2023-04-24T06:23:57;2.60;;;1.90;;
2211;SDS011;48849;48.758;9.158;2023-04-24T06:26:24;2.10;;;1.90;;
2211;SDS011;48849;48.758;9.158;2023-04-24T06:28:51;3.50;;;3.20;;
2211;SDS011;48849;48.758;9.158;2023-04-24T06:31:19;2.85;;;2.65;;
2211;SDS011;48849;48.758;9.158;2023-04-24T06:33:48;2.92;;;2.60;;
2211;SDS011;48849;48.758;9.158;2023-04-24T06:36:15;2.50;;;2.30;;
2211;SDS011;48849;48.758;9.158;2023-04-24T06:41:31;2.92;;;2.33;;
2211;SDS011;48849;48.758;9.158;2023-04-24T06:43:58;2.58;;;2.38;;
2211;SDS011;48849;48.758;9.158;2023-04-24T06:46:25;2.38;;;2.17;;
2211;SDS011;48849;48.758;9.158;2023-04-24T06:48:54;2.55;;;2.05;;
2211;SDS011;48849;48.758;9.158;2023-04-24T06:51:22;2.75;;;2.22;;
2211;SDS011;48849;48.758;9.158;2023-04-24T06:53:51;2.20;;;2.00;;
2211;SDS011;48849;48.758;9.158;2023-04-24T06:56:18;3.88;;;2.10;;
2211;SDS011;48849;48.758;9.158;2023-04-24T06:58:45;3.60;;;1.92;;
2211;SDS011;48849;48.758;9.158;2023-04-24T07:01:12;2.20;;;2.00;;
2211;SDS011;48849;48.758;9.158;2023-04-24T07:03:39;2.25;;;2.05;;
2211;SDS011;48849;48.758;9.158;2023-04-24T07:06:08;3.22;;;2.20;;
2211;SDS011;48849;48.758;9.158;2023-04-24T07:08:36;3.65;;;2.20;;
2211;SDS011;48849;48.758;9.158;2023-04-24T07:11:03;3.05;;;2.00;;
2211;SDS011;48849;48.758;9.158;2023-04-24T07:13:30;2.70;;;2.10;;
2211;SDS011;48849;48.758;9.158;2023-04-24T07:15:57;3.78;;;2.42;;
2211;SDS011;48849;48.758;9.158;2023-04-24T07:18:24;2.38;;;2.10;;
2211;SDS011;48849;48.758;9.158;2023-04-24T07:20:50;3.58;;;2.40;;
2211;SDS011;48849;48.758;9.158;2023-04-24T07:23:18;2.80;;;2.10;;
2211;SDS011;48849;48.758;9.158;2023-04-24T07:25:46;2.15;;;1.90;;
2211;SDS011;48849;48.758;9.158;2023-04-24T07:28:13;4.22;;;2.00;;
2211;SDS011;48849;48.758;9.158;2023-04-24T07:30:40;2.75;;;1.98;;
2211;SDS011;48849;48.758;9.158;2023-04-24T07:33:07;2.50;;;1.90;;
2211;SDS011;48849;48.758;9.158;2023-04-24T07:35:36;1.70;;;1.60;;
2211;SDS011;48849;48.758;9.158;2023-04-24T07:38:03;2.22;;;1.80;;
2211;SDS011;48849;48.758;9.158;2023-04-24T07:40:31;1.88;;;1.75;;
2211;SDS011;48849;48.758;9.158;2023-04-24T07:42:58;2.08;;;1.67;;
2211;SDS011;48849;48.758;9.158;2023-04-24T07:45:25;1.95;;;1.70;;
2211;SDS011;48849;48.758;9.158;2023-04-24T07:47:53;1.60;;;1.50;;
2211;SDS011;48849;48.758;9.158;2023-04-24T07:50:20;2.95;;;1.70;;
2211;SDS011;48849;48.758;9.158;2023-04-24T07:52:46;3.05;;;1.75;;
2211;SDS011;48849;48.758;9.158;2023-04-24T07:55:13;3.90;;;1.90;;
2211;SDS011;48849;48.758;9.158;2023-04-24T07:57:42;2.05;;;1.88;;
2211;SDS011;48849;48.758;9.158;2023-04-24T08:00:09;2.60;;;2.22;;
2211;SDS011;48849;48.758;9.158;2023-04-24T08:02:37;1.70;;;1.60;;
2211;SDS011;48849;48.758;9.158;2023-04-24T08:05:04;2.90;;;1.92;;
2211;SDS011;48849;48.758;9.158;2023-04-24T08:07:31;3.08;;;1.90;;
2211;SDS011;48849;48.758;9.158;2023-04-24T08:09:58;2.15;;;1.60;;
2211;SDS011;48849;48.758;9.158;2023-04-24T08:12:25;2.55;;;2.33;;
2211;SDS011;48849;48.758;9.158;2023-04-24T08:14:53;2.40;;;2.20;;
2211;SDS011;48849;48.758;9.158;2023-04-24T08:17:20;2.85;;;1.90;;
2211;SDS011;48849;48.758;9.158;2023-04-24T08:19:47;2.65;;;1.65;;
2211;SDS011;48849;48.758;9.158;2023-04-24T08:22:16;2.53;;;1.60;;
2211;SDS011;48849;48.758;9.158;2023-04-24T08:24:42;2.15;;;1.85;;
2211;SDS011;48849;48.758;9.158;2023-04-24T08:27:09;2.08;;;1.77;;
2211;SDS011;48849;48.758;9.158;2023-04-24T08:29:36;1.58;;;1.45;;
2211;SDS011;48849;48.758;9.158;2023-04-24T08:32:05;1.88;;;1.77;;
2211;SDS011;48849;48.758;9.158;2023-04-24T08:34:32;2.10;;;1.65;;
2211;SDS011;48849;48.758;9.158;2023-04-24T08:36:58;1.63;;;1.52;;
2211;SDS011;48849;48.758;9.158;2023-04-24T08:39:25;1.98;;;1.77;;
2211;SDS011;48849;48.758;9.158;2023-04-24T08:41:52;2.90;;;1.92;;
2211;SDS011;48849;48.758;9.158;2023-04-24T08:44:20;2.10;;;1.73;;
2211;SDS011;48849;48.758;9.158;2023-04-24T08:46:47;2.97;;;1.50;;
2211;SDS011;48849;48.758;9.158;2023-04-24T08:49:17;1.70;;;1.60;;
2211;SDS011;48849;48.758;9.158;2023-04-24T08:51:47;3.88;;;2.10;;
2211;SDS011;48849;48.758;9.158;2023-04-24T08:54:15;2.00;;;1.40;;
2211;SDS011;48849;48.758;9.158;2023-04-24T08:56:44;2.38;;;1.80;;
2211;SDS011;48849;48.758;9.158;2023-04-24T08:59:13;3.70;;;1.77;;
2211;SDS011;48849;48.758;9.158;2023-04-24T09:01:40;2.50;;;1.75;;
2211;SDS011;48849;48.758;9.158;2023-04-24T09:04:09;2.05;;;1.85;;
2211;SDS011;48849;48.758;9.158;2023-04-24T09:06:39;5.30;;;2.10;;
2211;SDS011;48849;48.758;9.158;2023-04-24T09:09:06;1.98;;;1.70;;
2211;SDS011;48849;48.758;9.158;2023-04-24T09:11:34;1.80;;;1.70;;
2211;SDS011;48849;48.758;9.158;2023-04-24T09:14:02;2.40;;;1.80;;
2211;SDS011;48849;48.758;9.158;2023-04-24T09:16:30;2.40;;;1.88;;
2211;SDS011;48849;48.758;9.158;2023-04-24T09:19:00;3.55;;;1.85;;
2211;SDS011;48849;48.758;9.158;2023-04-24T09:21:31;4.28;;;2.67;;
2211;SDS011;48849;48.758;9.158;2023-04-24T09:24:00;2.47;;;2.20;;
2211;SDS011;48849;48.758;9.158;2023-04-24T09:26:28;2.55;;;1.75;;
2211;SDS011;48849;48.758;9.158;2023-04-24T09:28:58;2.22;;;1.80;;
2211;SDS011;48849;48.758;9.158;2023-04-24T09:31:26;1.90;;;1.80;;
2211;SDS011;48849;48.758;9.158;2023-04-24T09:33:55;2.65;;;1.75;;
2211;SDS011;48849;48.758;9.158;2023-04-24T09:36:29;2.85;;;1.90;;
2211;SDS011;48849;48.758;9.158;2023-04-24T09:39:01;3.63;;;1.70;;
2211;SDS011;48849;48.758;9.158;2023-04-24T09:41:28;1.85;;;1.70;;
2211;SDS011;48849;48.758;9.158;2023-04-24T09:43:55;1.98;;;1.60;;
2211;SDS011;48849;48.758;9.158;2023-04-24T09:46:29;2.10;;;1.80;;
2211;SDS011;48849;48.758;9.158;2023-04-24T09:48:57;2.78;;;1.38;;
2211;SDS011;48849;48.758;9.158;2023-04-24T09:51:33;2.90;;;1.80;;
2211;SDS011;48849;48.758;9.158;2023-04-24T09:54:03;1.80;;;1.70;;
2211;SDS011;48849;48.758;9.158;2023-04-24T09:56:37;2.63;;;1.88;;
2211;SDS011;48849;48.758;9.158;2023-04-24T09:59:09;3.47;;;1.70;;
2211;SDS011;48849;48.758;9.158;2023-04-24T10:01:36;6.88;;;1.92;;
2211;SDS011;48849;48.758;9.158;2023-04-24T10:04:11;10.10;;;3.00;;
2211;SDS011;48849;48.758;9.158;2023-04-24T10:06:42;3.55;;;1.73;;
2211;SDS011;48849;48.758;9.158;2023-04-24T10:09:13;1.52;;;1.42;;
2211;SDS011;48849;48.758;9.158;2023-04-24T10:14:10;1.50;;;1.40;;
2211;SDS011;48849;48.758;9.158;2023-04-24T10:16:39;2.45;;;1.40;;
2211;SDS011;48849;48.758;9.158;2023-04-24T10:19:06;3.15;;;1.30;;
2211;SDS011;48849;48.758;9.158;2023-04-24T10:21:34;1.42;;;1.33;;
2211;SDS011;48849;48.758;9.158;2023-04-24T10:24:02;2.17;;;1.55;;
2211;SDS011;48849;48.758;9.158;2023-04-24T10:26:33;2.17;;;1.65;;
2211;SDS011;48849;48.758;9.158;2023-04-24T10:29:03;1.65;;;1.55;;
2211;SDS011;48849;48.758;9.158;2023-04-24T10:31:37;1.90;;;1.40;;
2211;SDS011;48849;48.758;9.158;2023-04-24T10:34:04;2.28;;;1.70;;
2211;SDS011;48849;48.758;9.158;2023-04-24T10:36:32;1.60;;;1.40;;
2211;SDS011;48849;48.758;9.158;2023-04-24T10:39:02;3.05;;;1.58;;
2211;SDS011;48849;48.758;9.158;2023-04-24T10:41:37;2.35;;;1.38;;
2211;SDS011;48849;48.758;9.158;2023-04-24T10:44:05;3.55;;;1.45;;
2211;SDS011;48849;48.758;9.158;2023-04-24T10:46:32;1.70;;;1.50;;
2211;SDS011;48849;48.758;9.158;2023-04-24T10:48:59;2.22;;;1.60;;
2211;SDS011;48849;48.758;9.158;2023-04-24T10:51:44;6.85;;;1.60;;
2211;SDS011;48849;48.758;9.158;2023-04-24T10:54:21;4.93;;;1.48;;
2211;SDS011;48849;48.758;9.158;2023-04-24T10:56:53;1.75;;;1.38;;
2211;SDS011;48849;48.758;9.158;2023-04-24T11:00:09;1.98;;;1.25;;
2211;SDS011;48849;48.758;9.158;2023-04-24T11:02:39;4.13;;;1.38;;
2211;SDS011;48849;48.758;9.158;2023-04-24T11:05:13;2.88;;;1.40;;
2211;SDS011;48849;48.758;9.158;2023-04-24T11:10:37;1.52;;;1.42;;
2211;SDS011;48849;48.758;9.158;2023-04-24T11:13:06;1.60;;;1.13;;
2211;SDS011;48849;48.758;9.158;2023-04-24T11:15:36;1.50;;;1.20;;
2211;SDS011;48849;48.758;9.158;2023-04-24T11:18:11;1.20;;;1.00;;
2211;SDS011;48849;48.758;9.158;2023-04-24T11:20:42;1.40;;;1.30;;
2211;SDS011;48849;48.758;9.158;2023-04-24T11:23:11;1.52;;;1.40;;
2211;SDS011;48849;48.758;9.158;2023-04-24T11:25:40;2.67;;;1.33;;
2211;SDS011;48849;48.758;9.158;2023-04-24T11:28:09;3.55;;;1.50;;
2211;SDS011;48849;48.758;9.158;2023-04-24T11:30:42;1.92;;;1.20;;
2211;SDS011;48849;48.758;9.158;2023-04-24T11:33:09;1.73;;;1.30;;
2211;SDS011;48849;48.758;9.158;2023-04-24T11:35:36;1.40;;;1.30;;
2211;SDS011;48849;48.758;9.158;2023-04-24T11:38:06;2.88;;;1.83;;
2211;SDS011;48849;48.758;9.158;2023-04-24T11:40:33;1.65;;;1.55;;
2211;SDS011;48849;48.758;9.158;2023-04-24T11:43:00;1.65;;;1.50;;
2211;SDS011;48849;48.758;9.158;2023-04-24T11:45:31;1.85;;;1.20;;
2211;SDS011;48849;48.758;9.158;2023-04-24T11:47:58;1.40;;;1.20;;
2211;SDS011;48849;48.758;9.158;2023-04-24T11:50:26;1.98;;;1.35;;
2211;SDS011;48849;48.758;9.158;2023-04-24T11:52:54;1.65;;;1.25;;
2211;SDS011;48849;48.758;9.158;2023-04-24T11:55:28;2.65;;;1.05;;
2211;SDS011;48849;48.758;9.158;2023-04-24T11:57:56;2.10;;;1.40;;
2211;SDS011;48849;48.758;9.158;2023-04-24T12:00:24;2.30;;;1.33;;
2211;SDS011;48849;48.758;9.158;2023-04-24T12:03:02;1.60;;;1.50;;
2211;SDS011;48849;48.758;9.158;2023-04-24T12:05:32;1.65;;;1.50;;
2211;SDS011;48849;48.758;9.158;2023-04-24T12:07:59;1.70;;;1.60;;
2211;SDS011;48849;48.758;9.158;2023-04-24T12:10:38;1.58;;;1.30;;
2211;SDS011;48849;48.758;9.158;2023-04-24T12:14:49;1.50;;;1.40;;
2211;SDS011;48849;48.758;9.158;2023-04-24T12:17:04;1.52;;;1.30;;
2211;SDS011;48849;48.758;9.158;2023-04-24T15:13:51;2.25;;;2.05;;
2211;SDS011;48849;48.758;9.158;2023-04-24T15:16:31;2.40;;;2.20;;
2211;SDS011;48849;48.758;9.158;2023-04-24T15:18:58;4.68;;;2.10;;
2211;SDS011;48849;48.758;9.158;2023-04-24T15:22:44;3.03;;;2.28;;
2211;SDS011;48849;48.758;9.158;2023-04-24T15:24:46;2.85;;;2.10;;
2211;SDS011;48849;48.758;9.158;2023-04-24T15:27:38;2.55;;;2.05;;
2211;SDS011;48849;48.758;9.158;2023-04-24T15:30:26;2.45;;;2.25;;
2211;SDS011;48849;48.758;9.158;2023-04-24T15:33:13;2.55;;;2.10;;
2211;SDS011;48849;48.758;9.158;2023-04-24T15:36:05;3.55;;;3.20;;
2211;SDS011;48849;48.758;9.158;2023-04-24T15:38:55;3.75;;;3.25;;
2211;SDS011;48849;48.758;9.158;2023-04-24T15:41:31;3.92;;;2.88;;
2211;SDS011;48849;48.758;9.158;2023-04-24T15:44:00;2.83;;;2.30;;
2211;SDS011;48849;48.758;9.158;2023-04-24T15:46:39;2.13;;;2.00;;
2211;SDS011;48849;48.758;9.158;2023-04-24T15:49:06;2.10;;;1.90;;
2211;SDS011;48849;48.758;9.158;2023-04-24T15:51:35;2.67;;;2.47;;
2211;SDS011;48849;48.758;9.158;2023-04-24T15:54:02;3.88;;;2.42;;
2211;SDS011;48849;48.758;9.158;2023-04-24T15:56:32;2.72;;;2.50;;
2211;SDS011;48849;48.758;9.158;2023-04-24T15:59:01;3.42;;;2.90;;
2211;SDS011;48849;48.758;9.158;2023-04-24T16:01:30;4.85;;;3.05;;
2211;SDS011;48849;48.758;9.158;2023-04-24T16:03:59;2.58;;;2.38;;
2211;SDS011;48849;48.758;9.158;2023-04-24T16:06:29;3.17;;;2.88;;
2211;SDS011;48849;48.758;9.158;2023-04-24T16:08:58;2.63;;;2.42;;
2211;SDS011;48849;48.758;9.158;2023-04-24T16:11:25;2.75;;;2.40;;
2211;SDS011;48849;48.758;9.158;2023-04-24T16:13:56;2.65;;;2.28;;
2211;SDS011;48849;48.758;9.158;2023-04-24T16:16:26;2.70;;;2.50;;
2211;SDS011;48849;48.758;9.158;2023-04-24T16:18:54;3.08;;;2.88;;
2211;SDS011;48849;48.758;9.158;2023-04-24T16:21:27;4.63;;;3.15;;
2211;SDS011;48849;48.758;9.158;2023-04-24T16:24:00;3.17;;;2.70;;
2211;SDS011;48849;48.758;9.158;2023-04-24T16:26:27;3.33;;;2.70;;
2211;SDS011;48849;48.758;9.158;2023-04-24T16:28:56;5.55;;;2.78;;
2211;SDS011;48849;48.758;9.158;2023-04-24T16:31:25;2.97;;;2.67;;
2211;SDS011;48849;48.758;9.158;2023-04-24T16:33:55;2.95;;;2.20;;
2211;SDS011;48849;48.758;9.158;2023-04-24T16:36:23;3.55;;;2.70;;
2211;SDS011;48849;48.758;9.158;2023-04-24T16:38:53;3.65;;;3.30;;
2211;SDS011;48849;48.758;9.158;2023-04-24T16:41:20;3.28;;;2.63;;
2211;SDS011;48849;48.758;9.158;2023-04-24T16:43:47;4.40;;;3.00;;
2211;SDS011;48849;48.758;9.158;2023-04-24T16:46:17;3.50;;;2.70;;
2211;SDS011;48849;48.758;9.158;2023-04-24T16:48:46;2.60;;;2.40;;
2211;SDS011;48849;48.758;9.158;2023-04-24T16:51:16;3.00;;;2.70;;
2211;SDS011;48849;48.758;9.158;2023-04-24T16:53:46;2.80;;;2.60;;
2211;SDS011;48849;48.758;9.158;2023-04-24T16:56:16;2.83;;;2.58;;
2211;SDS011;48849;48.758;9.158;2023-04-24T16:58:45;2.67;;;2.47;;
2211;SDS011;48849;48.758;9.158;2023-04-24T17:01:13;2.42;;;2.22;;
2211;SDS011;48849;48.758;9.158;2023-04-24T17:03:44;3.22;;;2.50;;
2211;SDS011;48849;48.758;9.158;2023-04-24T17:06:12;4.57;;;2.30;;
2211;SDS011;48849;48.758;9.158;2023-04-24T17:08:39;2.10;;;1.90;;
2211;SDS011;48849;48.758;9.158;2023-04-24T17:11:07;2.95;;;1.50;;
2211;SDS011;48849;48.758;9.158;2023-04-24T17:13:43;2.15;;;1.95;;
2211;SDS011;48849;48.758;9.158;2023-04-24T17:16:11;1.85;;;1.75;;
2211;SDS011;48849;48.758;9.158;2023-04-24T17:18:40;1.95;;;1.80;;
2211;SDS011;48849;48.758;9.158;2023-04-24T17:21:10;3.00;;;1.90;;
2211;SDS011;48849;48.758;9.158;2023-04-24T17:23:37;4.88;;;1.90;;
2211;SDS011;48849;48.758;9.158;2023-04-24T17:26:05;6.03;;;2.08;;
2211;SDS011;48849;48.758;9.158;2023-04-24T17:28:32;2.35;;;2.00;;
2211;SDS011;48849;48.758;9.158;2023-04-24T17:40:00;2.15;;;1.42;;
2211;SDS011;48849;48.758;9.158;2023-04-24T18:48:29;2.85;;;2.60;;
2211;SDS011;48849;48.758;9.158;2023-04-24T18:52:00;2.10;;;1.90;;
2211;SDS011;48849;48.758;9.158;2023-04-24T18:56:47;4.00;;;2.20;;
2211;SDS011;48849;48.758;9.158;2023-04-24T18:58:16;3.30;;;2.25;;
2211;SDS011;48849;48.758;9.158;2023-04-24T19:00:55;2.28;;;2.05;;
2211;SDS011;48849;48.758;9.158;2023-04-24T19:03:24;4.53;;;4.00;;
2211;SDS011;48849;48.758;9.158;2023-04-24T19:05:55;3.22;;;2.70;;
2211;SDS011;48849;48.758;9.158;2023-04-24T19:08:22;3.13;;;2.83;;
2211;SDS011;48849;48.758;9.158;2023-04-24T19:10:49;4.28;;;2.75;;
2211;SDS011;48849;48.758;9.158;2023-04-24T19:13:16;6.20;;;4.72;;
2211;SDS011;48849;48.758;9.158;2023-04-24T19:15:44;5.78;;;4.00;;
2211;SDS011;48849;48.758;9.158;2023-04-24T19:18:10;3.35;;;2.40;;
2211;SDS011;48849;48.758;9.158;2023-04-24T19:20:37;4.30;;;2.90;;
2211;SDS011;48849;48.758;9.158;2023-04-24T19:23:06;2.90;;;2.60;;
2211;SDS011;48849;48.758;9.158;2023-04-24T19:25:32;2.67;;;2.47;;
2211;SDS011;48849;48.758;9.158;2023-04-24T19:27:59;3.10;;;2.80;;
2211;SDS011;48849;48.758;9.158;2023-04-24T19:30:26;3.83;;;2.53;;
2211;SDS011;48849;48.758;9.158;2023-04-24T19:32:53;2.50;;;2.13;;
2211;SDS011;48849;48.758;9.158;2023-04-24T19:35:19;2.53;;;2.30;;